createdAt,value
2022-10-22T00:00:43.516Z,22.65
2022-10-22T00:03:11.361Z,29.00
2022-10-22T00:05:38.970Z,27.35
2022-10-22T00:08:06.453Z,24.93
2022-10-22T00:10:34.194Z,24.15
2022-10-22T00:13:01.679Z,23.77
2022-10-22T00:15:29.216Z,28.33
2022-10-22T00:17:56.823Z,26.30
2022-10-22T00:20:24.339Z,35.70
2022-10-22T00:25:24.597Z,30.45
2022-10-22T00:27:52.173Z,29.15
2022-10-22T00:30:19.862Z,24.95
2022-10-22T00:32:47.365Z,31.00
2022-10-22T00:35:14.975Z,26.33
2022-10-22T00:37:42.467Z,30.48
2022-10-22T00:40:11.282Z,28.27
2022-10-22T00:42:39.434Z,24.95
2022-10-22T00:45:10.149Z,29.50
2022-10-22T00:47:41.602Z,28.55
2022-10-22T00:50:13.300Z,28.65
2022-10-22T00:52:41.026Z,29.50
2022-10-22T00:55:09.567Z,26.73
2022-10-22T00:57:37.923Z,31.63
2022-10-22T01:00:06.397Z,34.80
2022-10-22T01:02:34.240Z,31.67
2022-10-22T01:05:02.045Z,27.80
2022-10-22T01:07:29.749Z,33.70
2022-10-22T01:10:09.516Z,28.20
2022-10-22T01:13:05.381Z,31.45
2022-10-22T01:16:00.289Z,28.25
2022-10-22T01:18:41.269Z,33.17
2022-10-22T01:21:23.131Z,29.48
2022-10-22T01:24:05.743Z,31.30
2022-10-22T01:27:08.599Z,30.63
2022-10-22T01:30:01.415Z,30.27
2022-10-22T01:32:32.980Z,38.42
2022-10-22T01:35:05.885Z,33.53
2022-10-22T01:37:38.862Z,33.50
2022-10-22T01:40:08.543Z,31.92
2022-10-22T01:42:36.382Z,35.72
2022-10-22T01:45:11.345Z,33.88
2022-10-22T01:48:08.674Z,33.88
2022-10-22T01:50:59.232Z,35.07
2022-10-22T01:53:55.881Z,32.13
2022-10-22T01:57:00.729Z,35.88
2022-10-22T01:59:30.973Z,32.35
2022-10-22T02:02:34.147Z,33.10
2022-10-22T02:05:13.797Z,31.80
2022-10-22T02:07:51.043Z,34.25
2022-10-22T02:10:19.824Z,38.35
2022-10-22T02:12:52.055Z,34.15
2022-10-22T02:15:22.047Z,42.30
2022-10-22T02:17:51.415Z,37.43
2022-10-22T02:20:29.307Z,39.35
2022-10-22T02:22:58.553Z,34.95
2022-10-22T02:25:31.893Z,34.80
2022-10-22T02:28:08.063Z,38.05
2022-10-22T02:30:37.321Z,37.23
2022-10-22T02:33:22.506Z,36.35
2022-10-22T02:35:52.157Z,38.00
2022-10-22T02:38:20.529Z,39.90
2022-10-22T02:40:48.188Z,38.38
2022-10-22T02:43:15.726Z,40.47
2022-10-22T02:45:43.191Z,39.33
2022-10-22T02:48:11.966Z,43.03
2022-10-22T02:50:39.457Z,38.80
2022-10-22T02:53:07.008Z,39.38
2022-10-22T02:55:34.520Z,38.93
2022-10-22T02:58:02.073Z,41.15
2022-10-22T03:00:29.782Z,45.25
2022-10-22T03:02:57.283Z,38.35
2022-10-22T03:05:24.766Z,39.35
2022-10-22T03:07:52.248Z,39.83
2022-10-22T03:10:19.740Z,46.10
2022-10-22T03:12:48.334Z,37.88
2022-10-22T03:15:16.038Z,37.67
2022-10-22T03:17:43.631Z,43.05
2022-10-22T03:20:11.148Z,42.40
2022-10-22T03:22:41.811Z,45.20
2022-10-22T03:25:14.234Z,49.47
2022-10-22T03:27:43.142Z,44.55
2022-10-22T03:30:11.546Z,43.30
2022-10-22T03:32:39.157Z,42.13
2022-10-22T03:35:07.273Z,45.70
2022-10-22T03:37:36.155Z,39.92
2022-10-22T03:40:08.450Z,41.17
2022-10-22T03:42:35.932Z,37.88
2022-10-22T03:45:03.826Z,39.37
2022-10-22T03:47:31.347Z,48.65
2022-10-22T03:49:58.838Z,41.33
2022-10-22T03:52:26.329Z,44.40
2022-10-22T03:54:53.995Z,48.13
2022-10-22T03:57:21.564Z,43.57
2022-10-22T03:59:49.104Z,44.05
2022-10-22T04:02:17.048Z,42.70
2022-10-22T04:04:44.495Z,43.67
2022-10-22T04:07:12.012Z,48.13
2022-10-22T04:09:39.492Z,44.23
2022-10-22T04:12:08.701Z,40.17
2022-10-22T04:14:36.244Z,44.60
2022-10-22T04:17:03.742Z,51.05
2022-10-22T04:19:31.310Z,37.70
2022-10-22T04:21:59.998Z,44.33
2022-10-22T04:24:28.123Z,37.28
2022-10-22T04:26:55.871Z,38.25
2022-10-22T04:29:24.112Z,37.42
2022-10-22T04:31:51.716Z,40.65
2022-10-22T04:34:19.224Z,36.90
2022-10-22T04:36:46.677Z,33.80
2022-10-22T04:39:14.796Z,38.55
2022-10-22T04:41:42.314Z,37.13
2022-10-22T04:44:12.394Z,37.95
2022-10-22T04:46:44.651Z,35.60
2022-10-22T04:49:12.164Z,36.53
2022-10-22T04:51:39.676Z,36.72
2022-10-22T04:54:07.195Z,36.15
2022-10-22T04:56:34.696Z,29.15
2022-10-22T04:59:04.979Z,32.50
2022-10-22T05:01:39.916Z,31.92
2022-10-22T05:04:16.104Z,34.00
2022-10-22T05:06:44.441Z,37.83
2022-10-22T05:09:18.310Z,34.13
2022-10-22T05:11:49.224Z,30.97
2022-10-22T05:14:20.354Z,32.75
2022-10-22T05:16:48.822Z,32.67
2022-10-22T05:19:26.046Z,29.30
2022-10-22T05:21:55.889Z,27.20
2022-10-22T05:24:24.384Z,28.27
2022-10-22T05:26:53.555Z,26.98
2022-10-22T05:29:21.686Z,27.15
2022-10-22T05:31:49.299Z,32.13
2022-10-22T05:34:17.373Z,25.20
2022-10-22T05:36:44.924Z,27.67
2022-10-22T05:39:12.857Z,25.55
2022-10-22T05:41:40.554Z,26.88
2022-10-22T05:44:08.086Z,26.90
2022-10-22T05:46:36.803Z,25.88
2022-10-22T05:49:08.074Z,23.73
2022-10-22T05:51:37.246Z,25.65
2022-10-22T05:54:07.666Z,28.95
2022-10-22T05:56:37.433Z,32.33
2022-10-22T05:59:05.286Z,31.48
2022-10-22T06:01:35.497Z,32.90
2022-10-22T06:04:06.322Z,35.95
2022-10-22T06:06:39.528Z,34.97
2022-10-22T06:09:17.358Z,39.92
2022-10-22T06:11:46.241Z,48.47
2022-10-22T06:14:14.373Z,43.57
2022-10-22T06:16:41.943Z,37.40
2022-10-22T06:19:14.236Z,39.80
2022-10-22T06:21:42.016Z,44.78
2022-10-22T06:24:10.463Z,43.28
2022-10-22T06:26:38.313Z,40.97
2022-10-22T06:29:06.000Z,32.88
2022-10-22T06:31:39.534Z,36.75
2022-10-22T06:34:10.493Z,35.83
2022-10-22T06:36:38.568Z,34.85
2022-10-22T06:39:06.181Z,32.07
2022-10-22T06:41:33.768Z,34.80
2022-10-22T06:44:01.342Z,33.08
2022-10-22T06:46:29.550Z,32.47
2022-10-22T06:48:59.592Z,30.60
2022-10-22T06:51:27.868Z,29.77
2022-10-22T06:53:56.792Z,33.83
2022-10-22T06:56:27.286Z,31.20
2022-10-22T06:58:56.489Z,30.55
2022-10-22T07:01:27.356Z,35.15
2022-10-22T07:03:55.372Z,36.40
2022-10-22T07:06:24.603Z,35.00
2022-10-22T07:08:53.607Z,38.13
2022-10-22T07:11:24.197Z,34.80
2022-10-22T07:13:53.856Z,33.63
2022-10-22T07:16:21.429Z,39.60
2022-10-22T07:18:49.215Z,36.38
2022-10-22T07:21:20.484Z,32.53
2022-10-22T07:23:48.255Z,34.75
2022-10-22T07:26:17.299Z,34.80
2022-10-22T07:28:44.974Z,35.63
2022-10-22T07:31:14.383Z,35.17
2022-10-22T07:33:42.058Z,37.22
2022-10-22T07:36:17.316Z,33.38
2022-10-22T07:38:53.145Z,33.10
2022-10-22T07:41:20.702Z,32.50
2022-10-22T07:43:48.193Z,29.15
2022-10-22T07:46:15.813Z,35.53
2022-10-22T07:48:43.728Z,33.50
2022-10-22T07:51:11.467Z,30.08
2022-10-22T07:53:39.387Z,30.57
2022-10-22T07:56:07.437Z,31.50
2022-10-22T07:58:35.980Z,31.98
2022-10-22T08:01:05.900Z,33.90
2022-10-22T08:03:33.942Z,32.33
2022-10-22T08:06:01.631Z,28.97
2022-10-22T08:08:30.862Z,29.23
2022-10-22T08:11:00.922Z,26.92
2022-10-22T08:13:30.742Z,35.17
2022-10-22T08:16:01.667Z,31.52
2022-10-22T08:18:29.662Z,27.93
2022-10-22T08:20:57.664Z,26.25
2022-10-22T08:23:27.748Z,23.58
2022-10-22T08:25:57.754Z,27.48
2022-10-22T08:28:26.140Z,29.13
2022-10-22T08:30:53.637Z,27.40
2022-10-22T08:33:21.642Z,25.67
2022-10-22T08:35:50.630Z,24.25
2022-10-22T08:38:19.071Z,27.88
2022-10-22T08:40:57.173Z,27.85
2022-10-22T08:43:39.716Z,24.23
2022-10-22T08:46:22.852Z,23.55
2022-10-22T08:48:55.517Z,22.63
2022-10-22T08:51:26.395Z,25.77
2022-10-22T08:54:24.750Z,24.88
2022-10-22T08:57:15.462Z,23.63
2022-10-22T09:00:02.415Z,25.25
2022-10-22T09:02:56.293Z,23.08
2022-10-22T09:08:24.478Z,32.17
2022-10-22T09:11:02.242Z,30.40
2022-10-22T09:13:30.399Z,29.75
2022-10-22T09:16:15.450Z,29.02
2022-10-22T09:19:00.419Z,29.58
2022-10-22T09:21:59.758Z,27.70
2022-10-22T09:24:33.347Z,35.70
2022-10-22T09:27:02.493Z,31.42
2022-10-22T09:29:34.785Z,33.45
2022-10-22T09:32:02.752Z,35.00
2022-10-22T09:34:30.886Z,36.35
2022-10-22T09:37:01.525Z,33.90
2022-10-22T09:39:33.826Z,32.25
2022-10-22T09:42:01.442Z,32.67
2022-10-22T09:44:29.153Z,28.98
2022-10-22T09:46:56.710Z,31.38
2022-10-22T09:49:24.349Z,30.67
2022-10-22T09:51:53.578Z,30.40
2022-10-22T09:54:26.251Z,30.58
2022-10-22T09:56:56.715Z,31.25
2022-10-22T09:59:38.185Z,32.47
2022-10-22T10:02:33.532Z,32.70
2022-10-22T10:05:07.283Z,37.55
2022-10-22T10:07:37.009Z,35.67
2022-10-22T10:10:22.098Z,39.97
2022-10-22T10:13:14.838Z,40.80
2022-10-22T10:16:07.165Z,37.00
2022-10-22T10:19:04.903Z,37.22
2022-10-22T10:21:55.350Z,36.90
2022-10-22T10:24:38.162Z,31.83
2022-10-22T10:27:15.411Z,33.75
2022-10-22T10:30:12.836Z,29.70
2022-10-22T10:32:43.819Z,32.00
2022-10-22T10:35:20.527Z,34.47
2022-10-22T10:38:13.020Z,34.25
2022-10-22T10:40:48.011Z,32.80
2022-10-22T10:43:21.580Z,30.93
2022-10-22T10:45:58.391Z,34.80
2022-10-22T10:48:37.029Z,30.23
2022-10-22T10:51:15.919Z,32.75
2022-10-22T10:53:52.565Z,30.67
2022-10-22T10:56:28.007Z,35.20
2022-10-22T10:59:18.283Z,35.13
2022-10-22T11:02:09.916Z,29.92
2022-10-22T11:04:59.108Z,26.00
2022-10-22T11:07:44.731Z,25.40
2022-10-22T11:10:18.461Z,25.70
2022-10-22T11:12:51.475Z,26.17
2022-10-22T11:15:26.992Z,22.73
2022-10-22T11:18:00.784Z,21.75
2022-10-22T11:20:32.880Z,23.00
2022-10-22T11:23:19.588Z,20.40
2022-10-22T11:25:49.861Z,19.88
2022-10-22T11:28:27.413Z,18.25
2022-10-22T11:31:14.692Z,17.35
2022-10-22T11:34:04.943Z,14.68
2022-10-22T11:36:44.682Z,18.33
2022-10-22T11:39:34.418Z,14.98
2022-10-22T11:42:09.519Z,17.52
2022-10-22T11:45:00.621Z,17.63
2022-10-22T11:47:32.598Z,13.82
2022-10-22T11:50:26.002Z,13.87
2022-10-22T11:53:03.172Z,12.05
2022-10-22T11:55:34.683Z,12.38
2022-10-22T11:58:30.702Z,10.65
2022-10-22T12:01:10.119Z,15.13
2022-10-22T12:03:49.006Z,13.23
2022-10-22T12:06:23.099Z,12.23
2022-10-22T12:08:53.462Z,11.52
2022-10-22T12:11:40.896Z,13.68
2022-10-22T12:14:32.308Z,13.93
2022-10-22T12:17:09.962Z,13.40
2022-10-22T12:19:41.046Z,14.25
2022-10-22T12:22:11.574Z,13.57
2022-10-22T12:24:46.035Z,12.70
2022-10-22T12:27:27.658Z,16.00
2022-10-22T12:29:57.695Z,13.13
2022-10-22T12:32:38.100Z,11.45
2022-10-22T12:35:17.544Z,11.07
2022-10-22T12:37:45.551Z,13.23
2022-10-22T12:40:25.530Z,10.30
2022-10-22T12:42:58.909Z,9.17
2022-10-22T12:45:29.645Z,7.13
2022-10-22T12:48:03.178Z,6.70
2022-10-22T12:50:40.021Z,3.00
2022-10-22T12:53:18.783Z,3.30
2022-10-22T12:55:49.619Z,4.07
2022-10-22T12:58:21.222Z,3.47
2022-10-22T13:00:49.249Z,4.57
2022-10-22T13:03:40.411Z,3.28
2022-10-22T13:06:37.255Z,2.30
2022-10-22T13:09:17.443Z,3.50
2022-10-22T13:12:02.346Z,4.07
2022-10-22T13:14:33.107Z,3.58
2022-10-22T13:17:12.929Z,3.55
2022-10-22T13:19:52.557Z,3.50
2022-10-22T13:22:31.599Z,4.13
2022-10-22T13:25:19.056Z,4.13
2022-10-22T13:27:49.713Z,3.97
2022-10-22T13:30:32.913Z,3.00
2022-10-22T13:33:23.011Z,2.00
2022-10-22T13:35:50.784Z,3.70
2022-10-22T13:38:20.800Z,2.67
2022-10-22T13:40:49.238Z,4.40
2022-10-22T13:43:17.894Z,3.90
2022-10-22T13:45:47.382Z,3.67
2022-10-22T13:48:21.918Z,3.20
2022-10-22T13:50:53.443Z,3.05
2022-10-22T13:53:24.052Z,3.28
2022-10-22T13:55:51.615Z,4.75
2022-10-22T13:58:23.993Z,2.92
2022-10-22T14:00:55.918Z,3.13
2022-10-22T14:03:34.384Z,3.58
2022-10-22T14:06:01.952Z,4.38
2022-10-22T14:08:29.566Z,3.60
2022-10-22T14:10:57.689Z,4.60
2022-10-22T14:13:25.616Z,3.30
2022-10-22T14:15:53.199Z,3.83
2022-10-22T14:18:26.410Z,4.35
2022-10-22T14:20:56.818Z,3.53
2022-10-22T14:23:29.647Z,3.63
2022-10-22T14:25:58.523Z,3.83
2022-10-22T14:28:26.106Z,2.88
2022-10-22T14:30:54.736Z,2.88
2022-10-22T14:33:32.081Z,3.30
2022-10-22T14:36:01.169Z,3.33
2022-10-22T14:38:29.723Z,2.87
2022-10-22T14:40:59.576Z,4.18
2022-10-22T14:43:29.936Z,3.20
2022-10-22T14:45:58.105Z,1.60
2022-10-22T14:48:25.592Z,3.65
2022-10-22T14:50:55.088Z,8.20
2022-10-22T14:53:22.676Z,2.92
2022-10-22T14:55:51.613Z,4.35
2022-10-22T14:58:19.245Z,19.55
2022-10-22T15:00:46.771Z,10.40
2022-10-22T15:03:14.372Z,8.37
2022-10-22T15:05:46.390Z,15.07
2022-10-22T15:08:15.091Z,7.43
2022-10-22T15:10:42.701Z,9.75
2022-10-22T15:13:10.737Z,5.90
2022-10-22T15:15:41.264Z,6.03
2022-10-22T15:18:08.759Z,13.75
2022-10-22T15:20:36.602Z,4.68
2022-10-22T15:23:04.207Z,6.43
2022-10-22T15:25:31.778Z,5.75
2022-10-22T15:28:04.639Z,4.90
2022-10-22T15:30:35.074Z,7.88
2022-10-22T15:33:02.705Z,4.25
2022-10-22T15:35:30.747Z,6.00
2022-10-22T15:37:58.322Z,4.70
2022-10-22T15:40:26.033Z,4.23
2022-10-22T15:42:53.499Z,5.53
2022-10-22T15:45:25.109Z,3.05
2022-10-22T15:47:52.617Z,9.27
2022-10-22T15:50:20.138Z,5.97
2022-10-22T15:52:47.791Z,5.93
2022-10-22T15:55:15.521Z,7.03
2022-10-22T15:57:43.492Z,9.00
2022-10-22T16:00:11.910Z,9.15
2022-10-22T16:02:42.737Z,8.98
2022-10-22T16:05:10.310Z,8.00
2022-10-22T16:07:38.201Z,8.15
2022-10-22T16:10:07.726Z,16.58
2022-10-22T16:12:36.134Z,8.35
2022-10-22T16:15:04.371Z,8.52
2022-10-22T16:17:31.942Z,7.27
2022-10-22T16:19:59.531Z,8.35
2022-10-22T16:22:27.129Z,10.02
2022-10-22T16:24:54.636Z,11.85
2022-10-22T16:27:22.125Z,8.77
2022-10-22T16:29:49.645Z,12.27
2022-10-22T16:32:17.933Z,7.80
2022-10-22T16:34:45.452Z,8.77
2022-10-22T16:37:13.011Z,9.38
2022-10-22T16:39:40.501Z,8.85
2022-10-22T16:42:10.701Z,12.83
2022-10-22T16:44:38.268Z,12.55
2022-10-22T16:47:05.769Z,9.18
2022-10-22T16:49:33.407Z,9.70
2022-10-22T16:52:01.008Z,9.40
2022-10-22T16:54:28.597Z,8.83
2022-10-22T16:56:56.059Z,10.30
2022-10-22T16:59:23.655Z,10.38
2022-10-22T17:01:51.229Z,8.50
2022-10-22T17:04:18.937Z,8.38
2022-10-22T17:06:46.467Z,9.27
2022-10-22T17:09:14.140Z,11.48
2022-10-22T17:11:42.796Z,9.65
2022-10-22T17:14:13.647Z,9.90
2022-10-22T17:16:41.113Z,7.20
2022-10-22T17:19:14.816Z,8.63
2022-10-22T17:21:42.704Z,8.35
2022-10-22T17:24:10.225Z,11.00
2022-10-22T17:26:37.790Z,15.93
2022-10-22T17:29:05.265Z,9.48
2022-10-22T17:31:37.450Z,13.40
2022-10-22T17:34:07.876Z,12.80
2022-10-22T17:36:36.666Z,7.43
2022-10-22T17:39:07.287Z,9.55
2022-10-22T17:41:37.144Z,10.35
2022-10-22T17:44:09.130Z,12.07
2022-10-22T17:46:37.832Z,9.30
2022-10-22T17:49:08.575Z,13.50
2022-10-22T17:51:36.129Z,15.20
2022-10-22T17:54:07.288Z,10.05
2022-10-22T17:56:40.228Z,12.30
2022-10-22T17:59:09.921Z,10.10
2022-10-22T18:01:40.273Z,14.55
2022-10-22T18:04:08.633Z,16.42
2022-10-22T18:06:36.420Z,10.40
2022-10-22T18:09:05.870Z,14.10
2022-10-22T18:11:34.489Z,14.40
2022-10-22T18:14:02.396Z,14.35
2022-10-22T18:16:29.977Z,11.15
2022-10-22T18:18:58.178Z,11.15
2022-10-22T18:21:28.592Z,10.97
2022-10-22T18:23:59.246Z,15.68
2022-10-22T18:26:27.334Z,17.88
2022-10-22T18:28:56.868Z,13.50
2022-10-22T18:31:26.079Z,13.45
2022-10-22T18:36:27.832Z,12.40
2022-10-22T18:38:58.043Z,16.58
2022-10-22T18:41:27.452Z,14.20
2022-10-22T18:44:03.594Z,11.25
2022-10-22T18:46:34.727Z,14.77
2022-10-22T18:49:02.227Z,13.57
2022-10-22T18:51:31.634Z,11.90
2022-10-22T18:54:05.924Z,12.70
2022-10-22T18:56:47.013Z,15.73
2022-10-22T18:59:18.776Z,16.07
2022-10-22T19:01:46.520Z,14.13
2022-10-22T19:04:14.467Z,17.17
2022-10-22T19:06:45.277Z,15.57
2022-10-22T19:09:14.954Z,15.52
2022-10-22T19:11:44.302Z,14.90
2022-10-22T19:14:13.899Z,17.65
2022-10-22T19:16:41.439Z,17.48
2022-10-22T19:19:09.093Z,15.70
2022-10-22T19:21:37.723Z,16.60
2022-10-22T19:24:05.585Z,15.43
2022-10-22T19:26:33.976Z,18.05
2022-10-22T19:29:01.871Z,20.95
2022-10-22T19:31:31.227Z,26.73
2022-10-22T19:34:00.913Z,23.60
2022-10-22T19:36:30.340Z,25.33
2022-10-22T19:38:58.619Z,19.23
2022-10-22T19:41:28.224Z,19.65
2022-10-22T19:43:56.870Z,17.63
2022-10-22T19:46:26.386Z,18.73
2022-10-22T19:48:56.521Z,16.10
2022-10-22T19:51:26.607Z,20.08
2022-10-22T19:54:05.665Z,14.80
2022-10-22T19:56:34.630Z,11.60
2022-10-22T19:59:03.774Z,15.95
2022-10-22T20:01:34.210Z,18.67
2022-10-22T20:04:01.917Z,14.05
2022-10-22T20:06:30.642Z,16.60
2022-10-22T20:08:58.304Z,15.90
2022-10-22T20:11:28.367Z,14.55
2022-10-22T20:13:57.309Z,19.20
2022-10-22T20:16:28.684Z,20.48
2022-10-22T20:19:00.969Z,22.45
2022-10-22T20:21:28.611Z,19.30
2022-10-22T20:23:57.531Z,17.60
2022-10-22T20:26:28.196Z,14.27
2022-10-22T20:28:57.349Z,26.63
2022-10-22T20:31:28.069Z,16.35
2022-10-22T20:33:58.051Z,42.47
2022-10-22T20:36:26.509Z,24.80
2022-10-22T20:38:59.499Z,126.03
2022-10-22T20:41:27.142Z,43.40
2022-10-22T20:43:54.657Z,23.20
2022-10-22T20:46:30.998Z,23.65
2022-10-22T20:49:05.112Z,11.05
2022-10-22T20:51:32.950Z,14.43
2022-10-22T20:54:00.505Z,14.93
2022-10-22T20:56:28.445Z,14.50
2022-10-22T20:59:04.825Z,16.52
2022-10-22T21:01:44.235Z,17.90
2022-10-22T21:04:11.866Z,13.67
2022-10-22T21:06:41.395Z,11.15
2022-10-22T21:09:11.957Z,14.95
2022-10-22T21:11:41.708Z,17.42
2022-10-22T21:14:12.156Z,10.48
2022-10-22T21:16:51.131Z,15.03
2022-10-22T21:19:20.055Z,14.45
2022-10-22T21:21:47.534Z,17.75
2022-10-22T21:24:15.433Z,13.30
2022-10-22T21:26:43.807Z,14.93
2022-10-22T21:29:12.555Z,14.87
2022-10-22T21:31:40.568Z,21.42
2022-10-22T21:34:08.776Z,18.50
2022-10-22T21:36:36.270Z,16.27
2022-10-22T21:39:04.314Z,16.27
2022-10-22T21:41:31.833Z,18.40
2022-10-22T21:44:00.214Z,11.85
2022-10-22T21:46:29.687Z,17.90
2022-10-22T21:49:01.520Z,14.45
2022-10-22T21:51:35.255Z,19.33
2022-10-22T21:54:02.847Z,15.63
2022-10-22T21:56:33.633Z,17.38
2022-10-22T21:59:02.868Z,14.80
2022-10-22T22:01:30.459Z,19.05
2022-10-22T22:03:58.550Z,18.13
2022-10-22T22:06:30.779Z,13.03
2022-10-22T22:08:59.791Z,17.40
2022-10-22T22:11:28.712Z,12.23
2022-10-22T22:13:57.812Z,16.48
2022-10-22T22:16:29.075Z,15.30
2022-10-22T22:18:59.573Z,11.87
2022-10-22T22:21:28.120Z,13.63
2022-10-22T22:23:57.309Z,10.80
2022-10-22T22:26:29.648Z,12.65
2022-10-22T22:28:59.228Z,13.52
2022-10-22T22:31:30.056Z,14.47
2022-10-22T22:34:01.733Z,14.15
2022-10-22T22:36:34.928Z,11.48
2022-10-22T22:39:04.017Z,12.10
2022-10-22T22:41:31.809Z,11.68
2022-10-22T22:43:59.538Z,13.27
2022-10-22T22:46:27.168Z,15.65
2022-10-22T22:48:54.986Z,13.95
2022-10-22T22:51:23.000Z,14.65
2022-10-22T22:53:51.234Z,17.58
2022-10-22T22:56:21.614Z,11.50
2022-10-22T22:58:49.777Z,11.63
2022-10-22T23:01:29.232Z,13.60
2022-10-22T23:04:03.740Z,14.52
2022-10-22T23:06:33.887Z,15.82
2022-10-22T23:09:01.875Z,12.77
2022-10-22T23:11:29.554Z,11.40
2022-10-22T23:14:02.159Z,11.60
2022-10-22T23:16:32.962Z,12.20
2022-10-22T23:19:01.456Z,12.27
2022-10-22T23:21:34.321Z,12.97
2022-10-22T23:24:05.584Z,12.35
2022-10-22T23:26:41.720Z,12.23
2022-10-22T23:29:21.764Z,10.48
2022-10-22T23:31:50.516Z,10.27
2022-10-22T23:34:20.977Z,12.10
2022-10-22T23:36:48.981Z,14.30
2022-10-22T23:39:19.712Z,15.13
2022-10-22T23:41:47.396Z,10.45
2022-10-22T23:44:14.907Z,12.00
2022-10-22T23:46:42.487Z,15.97
2022-10-22T23:49:11.182Z,15.13
2022-10-22T23:51:39.812Z,8.90
2022-10-22T23:54:14.359Z,12.68
2022-10-22T23:56:41.990Z,12.38
2022-10-22T23:59:09.612Z,9.90
